sensor_id;sensor_type;location;lat;lon;timestamp;P1;durP1;ratioP1;P2;durP2;ratioP2
5696;SDS011;2873;50.966;7.210;2022-08-25T00:00:17;3.97;;;2.70;;
5696;SDS011;2873;50.966;7.210;2022-08-25T00:02:46;2.90;;;2.80;;
5696;SDS011;2873;50.966;7.210;2022-08-25T00:05:12;4.05;;;2.90;;
5696;SDS011;2873;50.966;7.210;2022-08-25T00:07:38;3.05;;;2.85;;
5696;SDS011;2873;50.966;7.210;2022-08-25T00:10:04;3.00;;;2.80;;
5696;SDS011;2873;50.966;7.210;2022-08-25T00:12:31;3.47;;;2.90;;
5696;SDS011;2873;50.966;7.210;2022-08-25T00:14:56;3.30;;;2.80;;
5696;SDS011;2873;50.966;7.210;2022-08-25T00:17:22;3.40;;;2.60;;
5696;SDS011;2873;50.966;7.210;2022-08-25T00:19:48;3.90;;;3.17;;
5696;SDS011;2873;50.966;7.210;2022-08-25T00:22:14;3.28;;;2.83;;
5696;SDS011;2873;50.966;7.210;2022-08-25T00:24:39;2.80;;;2.60;;
5696;SDS011;2873;50.966;7.210;2022-08-25T00:27:05;3.40;;;2.60;;
5696;SDS011;2873;50.966;7.210;2022-08-25T00:29:31;3.80;;;3.00;;
5696;SDS011;2873;50.966;7.210;2022-08-25T00:31:57;3.63;;;3.33;;
5696;SDS011;2873;50.966;7.210;2022-08-25T00:34:26;6.07;;;3.10;;
5696;SDS011;2873;50.966;7.210;2022-08-25T00:36:54;3.53;;;3.23;;
5696;SDS011;2873;50.966;7.210;2022-08-25T00:39:20;3.30;;;3.05;;
5696;SDS011;2873;50.966;7.210;2022-08-25T00:41:47;4.28;;;2.63;;
5696;SDS011;2873;50.966;7.210;2022-08-25T00:44:14;4.22;;;3.00;;
5696;SDS011;2873;50.966;7.210;2022-08-25T00:46:47;3.40;;;3.10;;
5696;SDS011;2873;50.966;7.210;2022-08-25T00:49:35;3.97;;;3.20;;
5696;SDS011;2873;50.966;7.210;2022-08-25T00:54:38;3.78;;;2.80;;
5696;SDS011;2873;50.966;7.210;2022-08-25T00:57:08;6.35;;;3.00;;
5696;SDS011;2873;50.966;7.210;2022-08-25T00:59:36;5.03;;;3.10;;
5696;SDS011;2873;50.966;7.210;2022-08-25T01:02:05;3.50;;;3.20;;
5696;SDS011;2873;50.966;7.210;2022-08-25T01:04:31;6.70;;;3.00;;
5696;SDS011;2873;50.966;7.210;2022-08-25T01:06:58;3.70;;;3.10;;
5696;SDS011;2873;50.966;7.210;2022-08-25T01:09:25;3.35;;;3.05;;
5696;SDS011;2873;50.966;7.210;2022-08-25T01:11:55;3.20;;;2.90;;
5696;SDS011;2873;50.966;7.210;2022-08-25T01:14:20;4.37;;;3.50;;
5696;SDS011;2873;50.966;7.210;2022-08-25T01:16:48;5.75;;;3.60;;
5696;SDS011;2873;50.966;7.210;2022-08-25T01:19:14;3.40;;;3.10;;
5696;SDS011;2873;50.966;7.210;2022-08-25T01:21:42;6.03;;;3.10;;
5696;SDS011;2873;50.966;7.210;2022-08-25T01:24:34;3.47;;;3.17;;
5696;SDS011;2873;50.966;7.210;2022-08-25T01:27:08;7.68;;;3.00;;
5696;SDS011;2873;50.966;7.210;2022-08-25T01:29:35;4.63;;;3.22;;
5696;SDS011;2873;50.966;7.210;2022-08-25T01:32:03;7.70;;;3.10;;
5696;SDS011;2873;50.966;7.210;2022-08-25T01:34:33;3.33;;;3.00;;
5696;SDS011;2873;50.966;7.210;2022-08-25T01:37:02;3.42;;;3.10;;
5696;SDS011;2873;50.966;7.210;2022-08-25T01:39:29;5.28;;;3.30;;
5696;SDS011;2873;50.966;7.210;2022-08-25T01:42:08;6.78;;;3.10;;
5696;SDS011;2873;50.966;7.210;2022-08-25T01:44:39;4.00;;;3.10;;
5696;SDS011;2873;50.966;7.210;2022-08-25T01:47:07;5.78;;;3.72;;
5696;SDS011;2873;50.966;7.210;2022-08-25T01:49:33;3.50;;;3.20;;
5696;SDS011;2873;50.966;7.210;2022-08-25T01:52:09;3.60;;;3.30;;
5696;SDS011;2873;50.966;7.210;2022-08-25T01:54:35;3.50;;;3.20;;
5696;SDS011;2873;50.966;7.210;2022-08-25T01:57:00;4.93;;;3.40;;
5696;SDS011;2873;50.966;7.210;2022-08-25T01:59:26;3.50;;;3.30;;
5696;SDS011;2873;50.966;7.210;2022-08-25T02:01:52;6.30;;;3.40;;
5696;SDS011;2873;50.966;7.210;2022-08-25T02:04:17;3.50;;;3.20;;
5696;SDS011;2873;50.966;7.210;2022-08-25T02:06:43;3.45;;;3.15;;
5696;SDS011;2873;50.966;7.210;2022-08-25T02:09:10;4.53;;;3.17;;
5696;SDS011;2873;50.966;7.210;2022-08-25T02:11:39;7.97;;;3.60;;
5696;SDS011;2873;50.966;7.210;2022-08-25T02:14:07;3.40;;;3.20;;
5696;SDS011;2873;50.966;7.210;2022-08-25T02:16:35;4.47;;;3.27;;
5696;SDS011;2873;50.966;7.210;2022-08-25T02:19:03;5.53;;;3.50;;
5696;SDS011;2873;50.966;7.210;2022-08-25T02:21:32;3.63;;;3.33;;
5696;SDS011;2873;50.966;7.210;2022-08-25T02:23:59;4.10;;;3.70;;
5696;SDS011;2873;50.966;7.210;2022-08-25T02:26:25;3.40;;;3.10;;
5696;SDS011;2873;50.966;7.210;2022-08-25T02:28:51;12.53;;;3.47;;
5696;SDS011;2873;50.966;7.210;2022-08-25T02:31:18;3.88;;;3.58;;
5696;SDS011;2873;50.966;7.210;2022-08-25T02:33:45;4.80;;;3.55;;
5696;SDS011;2873;50.966;7.210;2022-08-25T02:36:11;6.15;;;3.20;;
5696;SDS011;2873;50.966;7.210;2022-08-25T02:38:37;3.80;;;3.40;;
5696;SDS011;2873;50.966;7.210;2022-08-25T02:41:07;6.13;;;3.70;;
5696;SDS011;2873;50.966;7.210;2022-08-25T02:43:38;5.38;;;3.78;;
5696;SDS011;2873;50.966;7.210;2022-08-25T02:46:05;5.18;;;3.78;;
5696;SDS011;2873;50.966;7.210;2022-08-25T02:48:31;6.05;;;3.55;;
5696;SDS011;2873;50.966;7.210;2022-08-25T02:50:58;6.20;;;3.70;;
5696;SDS011;2873;50.966;7.210;2022-08-25T02:53:25;6.43;;;4.18;;
5696;SDS011;2873;50.966;7.210;2022-08-25T02:55:52;4.22;;;3.83;;
5696;SDS011;2873;50.966;7.210;2022-08-25T02:58:18;4.25;;;3.42;;
5696;SDS011;2873;50.966;7.210;2022-08-25T03:00:44;4.30;;;3.90;;
5696;SDS011;2873;50.966;7.210;2022-08-25T03:03:10;4.97;;;3.60;;
5696;SDS011;2873;50.966;7.210;2022-08-25T03:05:36;4.05;;;3.70;;
5696;SDS011;2873;50.966;7.210;2022-08-25T03:08:02;3.93;;;3.63;;
5696;SDS011;2873;50.966;7.210;2022-08-25T03:10:29;3.92;;;3.63;;
5696;SDS011;2873;50.966;7.210;2022-08-25T03:12:55;4.25;;;3.92;;
5696;SDS011;2873;50.966;7.210;2022-08-25T03:15:21;4.68;;;3.85;;
5696;SDS011;2873;50.966;7.210;2022-08-25T03:17:49;4.43;;;3.57;;
5696;SDS011;2873;50.966;7.210;2022-08-25T03:20:16;4.03;;;3.72;;
5696;SDS011;2873;50.966;7.210;2022-08-25T03:22:42;4.37;;;3.97;;
5696;SDS011;2873;50.966;7.210;2022-08-25T03:25:08;5.00;;;4.50;;
5696;SDS011;2873;50.966;7.210;2022-08-25T03:27:52;5.93;;;4.30;;
5696;SDS011;2873;50.966;7.210;2022-08-25T03:30:18;4.73;;;4.27;;
5696;SDS011;2873;50.966;7.210;2022-08-25T03:32:44;5.00;;;3.90;;
5696;SDS011;2873;50.966;7.210;2022-08-25T03:35:10;4.90;;;3.80;;
5696;SDS011;2873;50.966;7.210;2022-08-25T03:37:36;5.60;;;3.58;;
5696;SDS011;2873;50.966;7.210;2022-08-25T03:40:03;5.00;;;3.80;;
5696;SDS011;2873;50.966;7.210;2022-08-25T03:42:31;4.25;;;3.90;;
5696;SDS011;2873;50.966;7.210;2022-08-25T03:44:57;4.40;;;4.00;;
5696;SDS011;2873;50.966;7.210;2022-08-25T03:47:23;4.40;;;4.00;;
5696;SDS011;2873;50.966;7.210;2022-08-25T03:49:50;4.10;;;3.80;;
5696;SDS011;2873;50.966;7.210;2022-08-25T03:52:16;6.57;;;4.40;;
5696;SDS011;2873;50.966;7.210;2022-08-25T03:54:42;5.18;;;4.18;;
5696;SDS011;2873;50.966;7.210;2022-08-25T03:57:08;6.73;;;4.13;;
5696;SDS011;2873;50.966;7.210;2022-08-25T03:59:35;4.40;;;3.80;;
5696;SDS011;2873;50.966;7.210;2022-08-25T04:02:03;6.82;;;4.30;;
5696;SDS011;2873;50.966;7.210;2022-08-25T04:04:29;6.95;;;4.50;;
5696;SDS011;2873;50.966;7.210;2022-08-25T04:06:55;6.25;;;4.28;;
5696;SDS011;2873;50.966;7.210;2022-08-25T04:09:22;5.05;;;4.07;;
5696;SDS011;2873;50.966;7.210;2022-08-25T04:11:48;4.85;;;3.90;;
5696;SDS011;2873;50.966;7.210;2022-08-25T04:14:14;4.38;;;3.97;;
5696;SDS011;2873;50.966;7.210;2022-08-25T04:16:39;4.30;;;4.00;;
5696;SDS011;2873;50.966;7.210;2022-08-25T04:19:05;6.13;;;4.10;;
5696;SDS011;2873;50.966;7.210;2022-08-25T04:21:33;4.40;;;4.10;;
5696;SDS011;2873;50.966;7.210;2022-08-25T04:24:00;5.60;;;4.70;;
5696;SDS011;2873;50.966;7.210;2022-08-25T04:28:57;6.82;;;4.32;;
5696;SDS011;2873;50.966;7.210;2022-08-25T04:31:24;5.45;;;4.00;;
5696;SDS011;2873;50.966;7.210;2022-08-25T04:33:50;7.40;;;4.30;;
5696;SDS011;2873;50.966;7.210;2022-08-25T04:36:16;5.63;;;4.40;;
5696;SDS011;2873;50.966;7.210;2022-08-25T04:38:43;7.28;;;4.90;;
5696;SDS011;2873;50.966;7.210;2022-08-25T04:41:11;5.68;;;4.53;;
5696;SDS011;2873;50.966;7.210;2022-08-25T04:43:39;4.80;;;4.40;;
5696;SDS011;2873;50.966;7.210;2022-08-25T04:46:10;4.60;;;4.20;;
5696;SDS011;2873;50.966;7.210;2022-08-25T04:48:38;5.85;;;5.25;;
5696;SDS011;2873;50.966;7.210;2022-08-25T04:51:11;6.45;;;4.38;;
5696;SDS011;2873;50.966;7.210;2022-08-25T04:53:40;4.72;;;4.32;;
5696;SDS011;2873;50.966;7.210;2022-08-25T04:56:06;5.00;;;4.40;;
5696;SDS011;2873;50.966;7.210;2022-08-25T04:58:35;4.80;;;4.33;;
5696;SDS011;2873;50.966;7.210;2022-08-25T05:01:05;5.00;;;4.35;;
5696;SDS011;2873;50.966;7.210;2022-08-25T05:03:36;5.22;;;4.72;;
5696;SDS011;2873;50.966;7.210;2022-08-25T05:06:02;5.20;;;4.70;;
5696;SDS011;2873;50.966;7.210;2022-08-25T05:08:29;4.93;;;4.30;;
5696;SDS011;2873;50.966;7.210;2022-08-25T05:10:56;8.40;;;4.70;;
5696;SDS011;2873;50.966;7.210;2022-08-25T05:13:22;6.68;;;4.10;;
5696;SDS011;2873;50.966;7.210;2022-08-25T05:15:55;6.18;;;4.43;;
5696;SDS011;2873;50.966;7.210;2022-08-25T05:18:23;5.28;;;4.47;;
5696;SDS011;2873;50.966;7.210;2022-08-25T05:20:51;6.60;;;4.88;;
5696;SDS011;2873;50.966;7.210;2022-08-25T05:23:18;5.07;;;4.57;;
5696;SDS011;2873;50.966;7.210;2022-08-25T05:25:45;6.32;;;4.80;;
5696;SDS011;2873;50.966;7.210;2022-08-25T05:28:11;7.20;;;4.72;;
5696;SDS011;2873;50.966;7.210;2022-08-25T05:30:39;5.10;;;4.60;;
5696;SDS011;2873;50.966;7.210;2022-08-25T05:33:06;7.25;;;5.38;;
5696;SDS011;2873;50.966;7.210;2022-08-25T05:35:32;5.20;;;4.70;;
5696;SDS011;2873;50.966;7.210;2022-08-25T05:37:58;6.50;;;5.00;;
5696;SDS011;2873;50.966;7.210;2022-08-25T05:40:23;5.20;;;4.80;;
5696;SDS011;2873;50.966;7.210;2022-08-25T05:42:49;4.97;;;4.50;;
5696;SDS011;2873;50.966;7.210;2022-08-25T05:45:15;7.50;;;4.73;;
5696;SDS011;2873;50.966;7.210;2022-08-25T05:47:41;6.40;;;5.10;;
5696;SDS011;2873;50.966;7.210;2022-08-25T05:50:08;5.20;;;4.70;;
5696;SDS011;2873;50.966;7.210;2022-08-25T05:52:34;5.50;;;4.90;;
5696;SDS011;2873;50.966;7.210;2022-08-25T05:55:00;5.10;;;4.60;;
5696;SDS011;2873;50.966;7.210;2022-08-25T05:57:25;6.00;;;4.70;;
5696;SDS011;2873;50.966;7.210;2022-08-25T05:59:51;4.90;;;4.40;;
5696;SDS011;2873;50.966;7.210;2022-08-25T06:02:17;5.30;;;4.80;;
5696;SDS011;2873;50.966;7.210;2022-08-25T06:05:02;5.65;;;4.82;;
5696;SDS011;2873;50.966;7.210;2022-08-25T06:07:28;9.52;;;5.20;;
5696;SDS011;2873;50.966;7.210;2022-08-25T06:09:53;8.43;;;4.63;;
5696;SDS011;2873;50.966;7.210;2022-08-25T06:12:19;5.93;;;4.80;;
5696;SDS011;2873;50.966;7.210;2022-08-25T06:14:45;4.93;;;4.45;;
5696;SDS011;2873;50.966;7.210;2022-08-25T06:17:12;6.30;;;4.53;;
5696;SDS011;2873;50.966;7.210;2022-08-25T06:19:38;8.82;;;5.50;;
5696;SDS011;2873;50.966;7.210;2022-08-25T06:22:03;6.50;;;4.77;;
5696;SDS011;2873;50.966;7.210;2022-08-25T06:24:29;7.57;;;4.73;;
5696;SDS011;2873;50.966;7.210;2022-08-25T06:26:55;6.17;;;5.07;;
5696;SDS011;2873;50.966;7.210;2022-08-25T06:29:21;7.60;;;5.00;;
5696;SDS011;2873;50.966;7.210;2022-08-25T06:31:48;5.70;;;4.70;;
5696;SDS011;2873;50.966;7.210;2022-08-25T06:34:14;5.70;;;5.20;;
5696;SDS011;2873;50.966;7.210;2022-08-25T06:36:40;6.53;;;4.70;;
5696;SDS011;2873;50.966;7.210;2022-08-25T06:39:05;6.53;;;5.85;;
5696;SDS011;2873;50.966;7.210;2022-08-25T06:41:31;7.00;;;5.80;;
5696;SDS011;2873;50.966;7.210;2022-08-25T06:43:57;8.48;;;5.55;;
5696;SDS011;2873;50.966;7.210;2022-08-25T06:46:24;5.82;;;4.90;;
5696;SDS011;2873;50.966;7.210;2022-08-25T06:48:51;5.70;;;5.20;;
5696;SDS011;2873;50.966;7.210;2022-08-25T06:51:19;8.67;;;4.80;;
5696;SDS011;2873;50.966;7.210;2022-08-25T06:53:46;10.15;;;5.65;;
5696;SDS011;2873;50.966;7.210;2022-08-25T06:56:13;5.38;;;4.90;;
5696;SDS011;2873;50.966;7.210;2022-08-25T06:58:39;5.95;;;5.25;;
5696;SDS011;2873;50.966;7.210;2022-08-25T07:01:09;7.40;;;5.20;;
5696;SDS011;2873;50.966;7.210;2022-08-25T07:03:38;5.60;;;5.10;;
5696;SDS011;2873;50.966;7.210;2022-08-25T07:06:05;7.30;;;5.60;;
5696;SDS011;2873;50.966;7.210;2022-08-25T07:08:31;8.55;;;4.90;;
5696;SDS011;2873;50.966;7.210;2022-08-25T07:10:57;5.90;;;5.30;;
5696;SDS011;2873;50.966;7.210;2022-08-25T07:13:28;5.67;;;4.70;;
5696;SDS011;2873;50.966;7.210;2022-08-25T07:15:56;10.90;;;5.85;;
5696;SDS011;2873;50.966;7.210;2022-08-25T07:18:21;6.73;;;5.27;;
5696;SDS011;2873;50.966;7.210;2022-08-25T07:20:47;8.77;;;4.87;;
5696;SDS011;2873;50.966;7.210;2022-08-25T07:23:12;6.97;;;5.60;;
5696;SDS011;2873;50.966;7.210;2022-08-25T07:25:38;6.80;;;5.40;;
5696;SDS011;2873;50.966;7.210;2022-08-25T07:28:04;6.77;;;5.30;;
5696;SDS011;2873;50.966;7.210;2022-08-25T07:30:30;8.13;;;5.67;;
5696;SDS011;2873;50.966;7.210;2022-08-25T07:32:55;7.85;;;6.30;;
5696;SDS011;2873;50.966;7.210;2022-08-25T07:35:21;5.80;;;4.77;;
5696;SDS011;2873;50.966;7.210;2022-08-25T07:37:50;10.02;;;5.20;;
5696;SDS011;2873;50.966;7.210;2022-08-25T07:40:38;6.65;;;5.43;;
5696;SDS011;2873;50.966;7.210;2022-08-25T07:43:05;5.80;;;5.20;;
5696;SDS011;2873;50.966;7.210;2022-08-25T07:45:33;9.57;;;5.20;;
5696;SDS011;2873;50.966;7.210;2022-08-25T07:48:02;7.63;;;5.40;;
5696;SDS011;2873;50.966;7.210;2022-08-25T07:50:34;9.45;;;5.85;;
5696;SDS011;2873;50.966;7.210;2022-08-25T07:53:03;6.80;;;5.15;;
5696;SDS011;2873;50.966;7.210;2022-08-25T07:55:29;5.90;;;5.28;;
5696;SDS011;2873;50.966;7.210;2022-08-25T07:57:56;5.80;;;5.20;;
5696;SDS011;2873;50.966;7.210;2022-08-25T08:00:24;6.97;;;5.10;;
5696;SDS011;2873;50.966;7.210;2022-08-25T08:02:52;6.20;;;5.20;;
5696;SDS011;2873;50.966;7.210;2022-08-25T08:05:17;6.55;;;5.90;;
5696;SDS011;2873;50.966;7.210;2022-08-25T08:07:43;6.13;;;5.15;;
5696;SDS011;2873;50.966;7.210;2022-08-25T08:10:09;5.87;;;5.27;;
5696;SDS011;2873;50.966;7.210;2022-08-25T08:12:37;10.18;;;5.60;;
5696;SDS011;2873;50.966;7.210;2022-08-25T08:15:03;7.10;;;5.30;;
5696;SDS011;2873;50.966;7.210;2022-08-25T08:17:29;5.90;;;5.30;;
5696;SDS011;2873;50.966;7.210;2022-08-25T08:19:56;6.00;;;4.90;;
5696;SDS011;2873;50.966;7.210;2022-08-25T08:22:22;8.50;;;5.20;;
5696;SDS011;2873;50.966;7.210;2022-08-25T08:24:48;5.15;;;4.50;;
5696;SDS011;2873;50.966;7.210;2022-08-25T08:27:13;9.40;;;5.40;;
5696;SDS011;2873;50.966;7.210;2022-08-25T08:29:40;5.10;;;4.70;;
5696;SDS011;2873;50.966;7.210;2022-08-25T08:32:07;5.00;;;4.60;;
5696;SDS011;2873;50.966;7.210;2022-08-25T08:34:34;8.70;;;4.83;;
5696;SDS011;2873;50.966;7.210;2022-08-25T08:37:00;5.03;;;4.53;;
5696;SDS011;2873;50.966;7.210;2022-08-25T08:39:27;6.57;;;4.88;;
5696;SDS011;2873;50.966;7.210;2022-08-25T08:42:02;5.07;;;4.68;;
5696;SDS011;2873;50.966;7.210;2022-08-25T08:51:24;4.90;;;4.40;;
5696;SDS011;2873;50.966;7.210;2022-08-25T08:54:13;4.90;;;4.40;;
5696;SDS011;2873;50.966;7.210;2022-08-25T08:56:49;5.68;;;4.38;;
5696;SDS011;2873;50.966;7.210;2022-08-25T08:59:23;4.43;;;4.10;;
5696;SDS011;2873;50.966;7.210;2022-08-25T09:01:52;4.72;;;4.43;;
5696;SDS011;2873;50.966;7.210;2022-08-25T09:07:06;4.93;;;4.40;;
5696;SDS011;2873;50.966;7.210;2022-08-25T09:09:36;4.20;;;3.90;;
5696;SDS011;2873;50.966;7.210;2022-08-25T09:12:28;4.80;;;4.30;;
5696;SDS011;2873;50.966;7.210;2022-08-25T09:15:16;5.50;;;4.50;;
5696;SDS011;2873;50.966;7.210;2022-08-25T09:18:17;4.85;;;4.53;;
5696;SDS011;2873;50.966;7.210;2022-08-25T09:23:33;7.30;;;4.70;;
5696;SDS011;2873;50.966;7.210;2022-08-25T09:26:23;4.70;;;4.30;;
5696;SDS011;2873;50.966;7.210;2022-08-25T09:29:03;5.20;;;4.50;;
5696;SDS011;2873;50.966;7.210;2022-08-25T09:31:37;5.37;;;4.87;;
5696;SDS011;2873;50.966;7.210;2022-08-25T09:34:05;5.22;;;4.47;;
5696;SDS011;2873;50.966;7.210;2022-08-25T09:36:37;4.38;;;4.07;;
5696;SDS011;2873;50.966;7.210;2022-08-25T09:39:04;5.60;;;4.73;;
5696;SDS011;2873;50.966;7.210;2022-08-25T09:44:24;5.20;;;4.50;;
5696;SDS011;2873;50.966;7.210;2022-08-25T09:52:16;4.82;;;4.38;;
5696;SDS011;2873;50.966;7.210;2022-08-25T09:54:50;5.45;;;4.95;;
5696;SDS011;2873;50.966;7.210;2022-08-25T09:57:36;4.10;;;3.80;;
5696;SDS011;2873;50.966;7.210;2022-08-25T10:00:30;4.82;;;4.43;;
5696;SDS011;2873;50.966;7.210;2022-08-25T10:06:17;6.90;;;4.95;;
5696;SDS011;2873;50.966;7.210;2022-08-25T10:09:10;5.30;;;4.80;;
5696;SDS011;2873;50.966;7.210;2022-08-25T10:11:14;4.88;;;4.47;;
5696;SDS011;2873;50.966;7.210;2022-08-25T10:14:01;5.47;;;4.65;;
5696;SDS011;2873;50.966;7.210;2022-08-25T10:16:39;5.40;;;4.90;;
5696;SDS011;2873;50.966;7.210;2022-08-25T10:19:09;6.70;;;4.45;;
5696;SDS011;2873;50.966;7.210;2022-08-25T10:21:41;5.10;;;4.47;;
5696;SDS011;2873;50.966;7.210;2022-08-25T10:24:08;4.85;;;4.40;;
5696;SDS011;2873;50.966;7.210;2022-08-25T10:26:54;4.30;;;4.00;;
5696;SDS011;2873;50.966;7.210;2022-08-25T10:35:28;8.90;;;4.20;;
5696;SDS011;2873;50.966;7.210;2022-08-25T10:46:20;4.33;;;3.67;;
5696;SDS011;2873;50.966;7.210;2022-08-25T10:49:01;4.30;;;3.67;;
5696;SDS011;2873;50.966;7.210;2022-08-25T10:55:05;3.50;;;3.30;;
5696;SDS011;2873;50.966;7.210;2022-08-25T11:00:06;3.88;;;3.60;;
5696;SDS011;2873;50.966;7.210;2022-08-25T11:02:48;4.35;;;4.00;;
5696;SDS011;2873;50.966;7.210;2022-08-25T11:08:28;4.60;;;3.80;;
5696;SDS011;2873;50.966;7.210;2022-08-25T11:11:44;4.07;;;3.60;;
5696;SDS011;2873;50.966;7.210;2022-08-25T11:16:20;3.60;;;3.40;;
5696;SDS011;2873;50.966;7.210;2022-08-25T11:19:14;3.33;;;3.13;;
5696;SDS011;2873;50.966;7.210;2022-08-25T11:27:07;3.67;;;3.47;;
5696;SDS011;2873;50.966;7.210;2022-08-25T11:29:42;4.70;;;3.53;;
5696;SDS011;2873;50.966;7.210;2022-08-25T11:32:17;3.72;;;3.33;;
5696;SDS011;2873;50.966;7.210;2022-08-25T11:34:48;3.70;;;3.50;;
5696;SDS011;2873;50.966;7.210;2022-08-25T11:37:20;4.80;;;3.80;;
5696;SDS011;2873;50.966;7.210;2022-08-25T11:45:49;3.60;;;3.40;;
5696;SDS011;2873;50.966;7.210;2022-08-25T11:48:40;4.28;;;3.97;;
5696;SDS011;2873;50.966;7.210;2022-08-25T11:56:40;4.20;;;3.90;;
5696;SDS011;2873;50.966;7.210;2022-08-25T11:59:06;4.10;;;3.70;;
5696;SDS011;2873;50.966;7.210;2022-08-25T12:04:12;5.20;;;3.60;;
5696;SDS011;2873;50.966;7.210;2022-08-25T12:15:19;3.40;;;3.30;;
5696;SDS011;2873;50.966;7.210;2022-08-25T12:23:31;3.40;;;3.10;;
5696;SDS011;2873;50.966;7.210;2022-08-25T12:29:03;3.00;;;2.80;;
5696;SDS011;2873;50.966;7.210;2022-08-25T12:34:28;3.13;;;2.80;;
5696;SDS011;2873;50.966;7.210;2022-08-25T12:37:15;4.47;;;2.70;;
5696;SDS011;2873;50.966;7.210;2022-08-25T12:42:27;2.80;;;2.60;;
5696;SDS011;2873;50.966;7.210;2022-08-25T12:47:44;2.30;;;2.20;;
5696;SDS011;2873;50.966;7.210;2022-08-25T12:55:55;2.45;;;2.33;;
5696;SDS011;2873;50.966;7.210;2022-08-25T12:58:33;2.40;;;2.30;;
5696;SDS011;2873;50.966;7.210;2022-08-25T13:12:32;2.67;;;2.25;;
5696;SDS011;2873;50.966;7.210;2022-08-25T13:15:10;2.00;;;2.00;;
5696;SDS011;2873;50.966;7.210;2022-08-25T13:17:52;2.10;;;1.90;;
5696;SDS011;2873;50.966;7.210;2022-08-25T13:20:18;2.20;;;2.10;;
5696;SDS011;2873;50.966;7.210;2022-08-25T13:22:51;4.30;;;2.00;;
5696;SDS011;2873;50.966;7.210;2022-08-25T13:25:21;2.10;;;1.85;;
5696;SDS011;2873;50.966;7.210;2022-08-25T13:27:58;2.30;;;1.60;;
5696;SDS011;2873;50.966;7.210;2022-08-25T13:30:28;1.80;;;1.70;;
5696;SDS011;2873;50.966;7.210;2022-08-25T13:32:56;1.40;;;1.40;;
5696;SDS011;2873;50.966;7.210;2022-08-25T13:37:52;2.10;;;1.60;;
5696;SDS011;2873;50.966;7.210;2022-08-25T13:42:50;1.80;;;1.70;;
5696;SDS011;2873;50.966;7.210;2022-08-25T13:45:20;1.70;;;1.60;;
5696;SDS011;2873;50.966;7.210;2022-08-25T13:47:54;1.60;;;1.50;;
5696;SDS011;2873;50.966;7.210;2022-08-25T13:52:54;1.80;;;1.80;;
5696;SDS011;2873;50.966;7.210;2022-08-25T13:58:17;5.72;;;1.70;;
5696;SDS011;2873;50.966;7.210;2022-08-25T14:00:46;2.00;;;1.90;;
5696;SDS011;2873;50.966;7.210;2022-08-25T14:03:33;3.50;;;1.92;;
5696;SDS011;2873;50.966;7.210;2022-08-25T14:08:40;5.03;;;2.40;;
5696;SDS011;2873;50.966;7.210;2022-08-25T14:14:02;2.43;;;2.33;;
5696;SDS011;2873;50.966;7.210;2022-08-25T14:16:34;4.57;;;3.00;;
5696;SDS011;2873;50.966;7.210;2022-08-25T14:19:03;2.40;;;2.20;;
5696;SDS011;2873;50.966;7.210;2022-08-25T14:21:30;3.40;;;2.42;;
5696;SDS011;2873;50.966;7.210;2022-08-25T14:23:57;2.47;;;2.38;;
5696;SDS011;2873;50.966;7.210;2022-08-25T14:26:24;2.50;;;2.40;;
5696;SDS011;2873;50.966;7.210;2022-08-25T14:28:50;2.33;;;2.22;;
5696;SDS011;2873;50.966;7.210;2022-08-25T14:31:29;2.50;;;2.40;;
5696;SDS011;2873;50.966;7.210;2022-08-25T14:33:58;2.30;;;2.22;;
5696;SDS011;2873;50.966;7.210;2022-08-25T14:36:29;2.60;;;2.50;;
5696;SDS011;2873;50.966;7.210;2022-08-25T14:38:57;2.70;;;2.60;;
5696;SDS011;2873;50.966;7.210;2022-08-25T14:41:23;2.55;;;2.40;;
5696;SDS011;2873;50.966;7.210;2022-08-25T14:43:50;2.40;;;2.30;;
5696;SDS011;2873;50.966;7.210;2022-08-25T14:46:20;4.13;;;2.42;;
5696;SDS011;2873;50.966;7.210;2022-08-25T14:48:49;3.10;;;2.90;;
5696;SDS011;2873;50.966;7.210;2022-08-25T14:51:19;3.15;;;2.47;;
5696;SDS011;2873;50.966;7.210;2022-08-25T14:53:45;2.60;;;2.40;;
5696;SDS011;2873;50.966;7.210;2022-08-25T14:56:11;3.20;;;2.60;;
5696;SDS011;2873;50.966;7.210;2022-08-25T14:58:38;2.80;;;2.60;;
5696;SDS011;2873;50.966;7.210;2022-08-25T15:01:05;2.70;;;2.50;;
5696;SDS011;2873;50.966;7.210;2022-08-25T15:03:35;2.70;;;2.60;;
5696;SDS011;2873;50.966;7.210;2022-08-25T15:06:02;3.03;;;2.80;;
5696;SDS011;2873;50.966;7.210;2022-08-25T15:08:29;2.92;;;2.72;;
5696;SDS011;2873;50.966;7.210;2022-08-25T15:11:13;2.93;;;2.70;;
5696;SDS011;2873;50.966;7.210;2022-08-25T15:13:39;2.90;;;2.80;;
5696;SDS011;2873;50.966;7.210;2022-08-25T15:16:05;3.20;;;2.60;;
5696;SDS011;2873;50.966;7.210;2022-08-25T15:18:32;2.58;;;2.38;;
5696;SDS011;2873;50.966;7.210;2022-08-25T15:20:58;2.35;;;2.22;;
5696;SDS011;2873;50.966;7.210;2022-08-25T15:23:24;2.75;;;2.65;;
5696;SDS011;2873;50.966;7.210;2022-08-25T15:25:50;2.90;;;2.70;;
5696;SDS011;2873;50.966;7.210;2022-08-25T15:28:19;2.88;;;2.78;;
5696;SDS011;2873;50.966;7.210;2022-08-25T15:30:45;3.00;;;2.40;;
5696;SDS011;2873;50.966;7.210;2022-08-25T15:33:11;2.63;;;2.50;;
5696;SDS011;2873;50.966;7.210;2022-08-25T15:35:38;2.55;;;2.45;;
5696;SDS011;2873;50.966;7.210;2022-08-25T15:38:04;2.90;;;2.70;;
5696;SDS011;2873;50.966;7.210;2022-08-25T15:40:29;3.30;;;3.10;;
5696;SDS011;2873;50.966;7.210;2022-08-25T15:42:55;2.80;;;2.70;;
5696;SDS011;2873;50.966;7.210;2022-08-25T15:45:21;2.88;;;2.67;;
5696;SDS011;2873;50.966;7.210;2022-08-25T15:47:47;3.00;;;2.70;;
5696;SDS011;2873;50.966;7.210;2022-08-25T15:50:15;3.20;;;2.60;;
5696;SDS011;2873;50.966;7.210;2022-08-25T15:52:43;2.55;;;2.35;;
5696;SDS011;2873;50.966;7.210;2022-08-25T15:55:10;3.40;;;2.60;;
5696;SDS011;2873;50.966;7.210;2022-08-25T15:57:36;3.28;;;2.72;;
5696;SDS011;2873;50.966;7.210;2022-08-25T16:00:03;2.50;;;2.40;;
5696;SDS011;2873;50.966;7.210;2022-08-25T16:02:31;2.40;;;2.20;;
5696;SDS011;2873;50.966;7.210;2022-08-25T16:04:58;3.40;;;3.10;;
5696;SDS011;2873;50.966;7.210;2022-08-25T16:07:25;2.80;;;2.60;;
5696;SDS011;2873;50.966;7.210;2022-08-25T16:09:51;2.70;;;2.60;;
5696;SDS011;2873;50.966;7.210;2022-08-25T16:12:19;2.60;;;2.50;;
5696;SDS011;2873;50.966;7.210;2022-08-25T16:14:45;2.77;;;2.67;;
5696;SDS011;2873;50.966;7.210;2022-08-25T16:17:11;2.50;;;2.30;;
5696;SDS011;2873;50.966;7.210;2022-08-25T16:19:36;3.65;;;2.47;;
5696;SDS011;2873;50.966;7.210;2022-08-25T16:22:02;2.70;;;2.60;;
5696;SDS011;2873;50.966;7.210;2022-08-25T16:24:28;2.90;;;2.70;;
5696;SDS011;2873;50.966;7.210;2022-08-25T16:26:53;2.53;;;2.33;;
5696;SDS011;2873;50.966;7.210;2022-08-25T16:29:24;2.70;;;2.50;;
5696;SDS011;2873;50.966;7.210;2022-08-25T16:31:49;5.80;;;3.00;;
5696;SDS011;2873;50.966;7.210;2022-08-25T16:34:15;2.70;;;2.50;;
5696;SDS011;2873;50.966;7.210;2022-08-25T16:36:40;7.93;;;2.40;;
5696;SDS011;2873;50.966;7.210;2022-08-25T16:39:06;3.33;;;2.47;;
5696;SDS011;2873;50.966;7.210;2022-08-25T16:41:31;3.10;;;2.80;;
5696;SDS011;2873;50.966;7.210;2022-08-25T16:44:01;3.20;;;2.90;;
5696;SDS011;2873;50.966;7.210;2022-08-25T16:46:32;3.03;;;2.83;;
5696;SDS011;2873;50.966;7.210;2022-08-25T16:49:01;3.25;;;3.05;;
5696;SDS011;2873;50.966;7.210;2022-08-25T16:51:30;4.60;;;2.90;;
5696;SDS011;2873;50.966;7.210;2022-08-25T16:53:56;3.40;;;3.20;;
5696;SDS011;2873;50.966;7.210;2022-08-25T16:56:41;4.05;;;3.30;;
5696;SDS011;2873;50.966;7.210;2022-08-25T16:59:08;2.90;;;2.70;;
5696;SDS011;2873;50.966;7.210;2022-08-25T17:01:35;4.25;;;3.40;;
5696;SDS011;2873;50.966;7.210;2022-08-25T17:04:02;3.47;;;3.10;;
5696;SDS011;2873;50.966;7.210;2022-08-25T17:06:29;3.67;;;3.30;;
5696;SDS011;2873;50.966;7.210;2022-08-25T17:08:58;5.25;;;3.60;;
5696;SDS011;2873;50.966;7.210;2022-08-25T17:11:25;4.40;;;3.70;;
5696;SDS011;2873;50.966;7.210;2022-08-25T17:13:59;3.78;;;3.47;;
5696;SDS011;2873;50.966;7.210;2022-08-25T17:16:28;3.85;;;3.45;;
5696;SDS011;2873;50.966;7.210;2022-08-25T17:18:56;4.20;;;3.30;;
5696;SDS011;2873;50.966;7.210;2022-08-25T17:21:23;6.32;;;3.20;;
5696;SDS011;2873;50.966;7.210;2022-08-25T17:23:53;3.65;;;3.33;;
5696;SDS011;2873;50.966;7.210;2022-08-25T17:26:20;4.70;;;3.40;;
5696;SDS011;2873;50.966;7.210;2022-08-25T17:28:47;3.67;;;3.10;;
5696;SDS011;2873;50.966;7.210;2022-08-25T17:31:13;8.27;;;3.10;;
5696;SDS011;2873;50.966;7.210;2022-08-25T17:33:39;3.40;;;3.20;;
5696;SDS011;2873;50.966;7.210;2022-08-25T17:36:05;4.25;;;3.38;;
5696;SDS011;2873;50.966;7.210;2022-08-25T17:38:32;3.70;;;3.40;;